Time;durP1;ratioP1;P1;durP2;ratioP2;P2;SDS_P1;SDS_P2;PMS_P1;PMS_P2;Temp;Humidity;BMP_temperature;BMP_pressure;BME280_temperature;BME280_humidity;BME280_pressure;Samples;Min_cycle;Max_cycle;Signal;HPM_P1;HPM_P2
2022/02/06 00:01:02;;;;;;;15.38;4.28;;;8.60;99.90;;;;;;5091924;28;20032;-70
2022/02/06 00:03:30;;;;;;;16.30;4.47;;;8.60;99.90;;;;;;5091808;28;20031;-70
2022/02/06 00:05:56;;;;;;;17.25;5.55;;;8.60;99.90;;;;;;5091661;28;20558;-71
2022/02/06 00:08:22;;;;;;;24.75;4.07;;;8.60;99.90;;;;;;5092091;28;20407;-70
2022/02/06 00:10:48;;;;;;;25.40;4.95;;;8.60;99.90;;;;;;5104438;28;20379;-70
2022/02/06 00:13:14;;;;;;;21.23;5.25;;;8.60;99.90;;;;;;5096185;28;20031;-70
2022/02/06 00:15:40;;;;;;;21.92;4.22;;;8.50;99.90;;;;;;5085965;28;20024;-71
2022/02/06 00:18:06;;;;;;;22.20;4.18;;;8.50;99.90;;;;;;5085645;28;20506;-71
2022/02/06 00:20:36;;;;;;;17.58;4.28;;;8.50;99.90;;;;;;5105343;28;20024;-70
2022/02/06 00:23:06;;;;;;;24.00;6.07;;;8.60;99.90;;;;;;5092027;28;20036;-71
2022/02/06 00:25:53;;;;;;;21.35;4.45;;;8.60;99.90;;;;;;5082401;28;20090;-71
2022/02/06 00:41:22;;;;;;;19.90;5.40;;;8.60;99.90;;;;;;5092029;28;20040;-70
2022/02/06 00:43:48;;;;;;;24.08;4.88;;;8.70;99.90;;;;;;5080330;28;20202;-70
2022/02/06 00:46:16;;;;;;;30.58;4.75;;;8.70;99.90;;;;;;5090668;28;20036;-70
2022/02/06 00:48:50;;;;;;;18.23;4.43;;;8.60;99.90;;;;;;5092076;28;20032;-70
2022/02/06 00:51:25;;;;;;;;;;;8.70;99.90;;;;;;5089063;28;20499;-70
2022/02/06 00:53:51;;;;;;;24.77;4.68;;;8.70;99.90;;;;;;5083180;28;19908;-70
2022/02/06 00:56:17;;;;;;;14.93;4.47;;;8.70;99.90;;;;;;5072440;28;20050;-70
2022/02/06 00:58:45;;;;;;;20.02;4.40;;;8.70;99.90;;;;;;5083878;28;20032;-70
2022/02/06 01:01:14;;;;;;;20.60;4.82;;;8.70;99.90;;;;;;5084215;28;20044;-70
2022/02/06 01:03:40;;;;;;;18.73;4.25;;;8.70;99.90;;;;;;5085421;28;20124;-71
2022/02/06 01:06:05;;;;;;;20.42;5.28;;;8.70;99.90;;;;;;5087599;28;20119;-70
2022/02/06 01:08:31;;;;;;;28.73;5.90;;;8.70;99.90;;;;;;5081727;28;20032;-70
2022/02/06 01:10:57;;;;;;;23.48;5.75;;;8.70;99.90;;;;;;5079742;28;20029;-70
2022/02/06 01:18:26;;;;;;;24.42;5.35;;;8.70;99.90;;;;;;5075124;28;20036;-70
2022/02/06 01:21:01;;;;;;;27.33;5.15;;;8.70;99.90;;;;;;5074653;28;20471;-71
2022/02/06 01:23:32;;;;;;;19.02;5.00;;;8.70;99.90;;;;;;5075873;28;20108;-71
2022/02/06 01:26:07;;;;;;;23.95;4.70;;;8.80;99.90;;;;;;5090877;28;20040;-70
2022/02/06 01:28:41;;;;;;;23.50;4.90;;;8.80;99.90;;;;;;5094258;28;20484;-70
2022/02/06 01:31:42;;;;;;;20.45;4.55;;;8.80;99.90;;;;;;5075668;28;20028;-71
2022/02/06 01:34:10;;;;;;;19.00;4.50;;;8.80;99.90;;;;;;5082891;28;20032;-70
2022/02/06 01:36:42;;;;;;;26.05;5.47;;;8.80;99.90;;;;;;5091747;28;20032;-70
2022/02/06 01:39:19;;;;;;;26.70;5.00;;;8.80;99.90;;;;;;5094888;28;20036;-70
2022/02/06 01:41:47;;;;;;;23.20;4.70;;;8.80;99.90;;;;;;5088664;28;20369;-70
2022/02/06 01:44:32;;;;;;;20.15;5.22;;;8.70;99.90;;;;;;5086723;28;20111;-70
2022/02/06 02:03:37;;;;;;;12.25;3.67;;;8.80;99.90;;;;;;5103221;28;20039;-70
2022/02/06 02:09:19;;;;;;;25.83;4.95;;;8.80;99.90;;;;;;5094010;28;20482;-70
2022/02/06 02:14:51;;;;;;;21.92;4.10;;;8.70;99.90;;;;;;5092169;28;20038;-70
2022/02/06 02:48:38;;;;;;;27.00;4.80;;;8.90;99.90;;;;;;5093322;28;20032;-69
2022/02/06 02:51:06;;;;;;;22.20;4.47;;;8.90;99.90;;;;;;5092729;28;20056;-69
2022/02/06 02:58:45;;;;;;;20.50;4.82;;;8.90;99.90;;;;;;5103085;28;20413;-69
2022/02/06 03:01:26;;;;;;;20.35;4.53;;;8.90;99.90;;;;;;5092942;28;20481;-69
2022/02/06 03:03:52;;;;;;;18.90;4.55;;;8.90;99.90;;;;;;5092716;28;20032;-69
2022/02/06 03:06:18;;;;;;;16.88;4.28;;;9.00;99.90;;;;;;5092618;28;20031;-69
2022/02/06 03:08:45;;;;;;;19.63;5.05;;;8.90;99.90;;;;;;5092963;28;20039;-69
2022/02/06 03:11:11;;;;;;;20.77;4.38;;;8.90;99.90;;;;;;5093285;28;20073;-69
2022/02/06 03:13:59;;;;;;;18.73;5.15;;;8.90;99.90;;;;;;5087231;28;20028;-69
2022/02/06 03:16:28;;;;;;;21.73;4.45;;;9.00;99.90;;;;;;5084453;28;20114;-69
2022/02/06 03:21:28;;;;;;;21.88;4.57;;;9.00;99.90;;;;;;5078679;28;20213;-69
2022/02/06 03:23:58;;;;;;;15.43;3.33;;;9.00;99.90;;;;;;5079150;28;20039;-69
2022/02/06 03:26:25;;;;;;;20.27;5.18;;;9.00;99.90;;;;;;5078503;28;20021;-69
2022/02/06 03:28:53;;;;;;;17.70;2.50;;;9.00;99.90;;;;;;5078868;28;20058;-69
2022/02/06 03:31:19;;;;;;;23.45;5.00;;;9.00;99.90;;;;;;5087376;28;20025;-69
2022/02/06 03:33:47;;;;;;;22.00;4.28;;;9.00;99.90;;;;;;5084869;28;20517;-69
2022/02/06 03:36:13;;;;;;;19.95;4.43;;;9.00;99.90;;;;;;5105130;28;20024;-69
2022/02/06 03:38:38;;;;;;;23.83;4.72;;;8.90;99.90;;;;;;5085774;28;20433;-69
2022/02/06 03:41:10;;;;;;;12.75;3.33;;;8.90;99.90;;;;;;5089289;28;20096;-69
2022/02/06 03:46:16;;;;;;;17.83;5.10;;;8.90;99.90;;;;;;5099275;28;20092;-69
2022/02/06 03:48:49;;;;;;;18.05;3.92;;;9.00;99.90;;;;;;5099980;28;20376;-69
2022/02/06 03:51:20;;;;;;;15.50;4.65;;;8.90;99.90;;;;;;5079360;28;20039;-69
2022/02/06 03:53:52;;;;;;;23.23;4.82;;;8.90;99.90;;;;;;5079053;28;20033;-69
2022/02/06 03:56:20;;;;;;;21.27;4.22;;;9.00;99.90;;;;;;5098375;28;20043;-70
2022/02/06 03:58:45;;;;;;;16.33;3.45;;;8.90;99.90;;;;;;5100857;28;20038;-69
2022/02/06 04:01:11;;;;;;;19.25;4.20;;;8.90;99.90;;;;;;5092063;28;20040;-69
2022/02/06 04:03:37;;;;;;;13.30;3.70;;;9.00;99.90;;;;;;5091658;28;20024;-69
2022/02/06 04:06:05;;;;;;;16.50;3.13;;;9.00;99.90;;;;;;5092219;28;20028;-69
2022/02/06 04:08:33;;;;;;;16.15;4.88;;;9.00;99.90;;;;;;5084187;28;20041;-69
2022/02/06 04:10:59;;;;;;;14.75;3.10;;;9.00;99.90;;;;;;5074343;28;20032;-69
2022/02/06 04:13:26;;;;;;;21.38;4.25;;;9.10;99.90;;;;;;5083293;28;20036;-69
2022/02/06 04:15:59;;;;;;;20.70;4.22;;;9.10;99.90;;;;;;5085250;28;20034;-69
2022/02/06 04:18:36;;;;;;;17.98;4.22;;;9.00;99.90;;;;;;5081432;28;20060;-69
2022/02/06 04:21:03;;;;;;;14.75;4.30;;;9.00;99.90;;;;;;5071639;28;20067;-69
2022/02/06 04:23:30;;;;;;;18.77;3.65;;;9.10;99.90;;;;;;5071627;28;20028;-69
2022/02/06 04:25:56;;;;;;;17.38;4.28;;;9.00;99.90;;;;;;5078424;28;20112;-69
2022/02/06 04:28:21;;;;;;;18.17;4.20;;;9.00;99.90;;;;;;5084665;28;20037;-69
2022/02/06 04:30:47;;;;;;;17.00;4.07;;;9.00;99.90;;;;;;5087904;28;20387;-69
2022/02/06 04:33:13;;;;;;;12.60;3.58;;;9.00;99.90;;;;;;5089643;28;20024;-69
2022/02/06 04:35:41;;;;;;;12.40;3.63;;;9.00;99.90;;;;;;5091740;28;20479;-69
2022/02/06 05:15:58;;;;;;;18.00;3.20;;;9.00;99.90;;;;;;5092478;28;20107;-69
2022/02/06 05:28:47;;;;;;;16.65;4.00;;;9.10;99.90;;;;;;5085464;28;20040;-69
2022/02/06 05:31:24;;;;;;;15.35;2.80;;;9.20;99.90;;;;;;5081831;28;20388;-69
2022/02/06 05:33:49;;;;;;;16.35;3.30;;;9.20;99.90;;;;;;5091537;28;20035;-69
2022/02/06 05:36:15;;;;;;;23.25;4.15;;;9.20;99.90;;;;;;5095272;28;20588;-69
2022/02/06 05:38:41;;;;;;;13.40;3.72;;;9.30;99.90;;;;;;5094653;28;20047;-69
2022/02/06 05:41:09;;;;;;;14.48;3.53;;;9.20;99.90;;;;;;5104245;28;20023;-69
2022/02/06 05:43:36;;;;;;;17.63;3.95;;;9.20;99.90;;;;;;5098253;28;20031;-69
2022/02/06 05:46:03;;;;;;;12.50;3.13;;;9.20;99.90;;;;;;5094987;28;20058;-69
2022/02/06 05:48:28;;;;;;;17.13;3.83;;;9.20;99.90;;;;;;5107176;28;20047;-70
2022/02/06 05:50:54;;;;;;;21.00;4.68;;;9.20;99.90;;;;;;5104839;28;20485;-70
2022/02/06 05:53:22;;;;;;;19.60;3.17;;;9.20;99.90;;;;;;5093750;28;20471;-70
2022/02/06 05:55:48;;;;;;;10.95;2.17;;;9.10;99.90;;;;;;5073821;28;20037;-69
2022/02/06 05:58:14;;;;;;;17.20;2.90;;;9.10;99.90;;;;;;5105219;28;20516;-70
2022/02/06 06:00:39;;;;;;;3.67;1.55;;;9.10;99.90;;;;;;5094441;28;20036;-69
2022/02/06 06:03:06;;;;;;;5.93;1.08;;;9.20;99.90;;;;;;5085566;28;20028;-70
2022/02/06 06:05:32;;;;;;;4.30;0.98;;;9.30;99.90;;;;;;5103477;28;20028;-69
2022/02/06 06:07:58;;;;;;;4.55;1.70;;;9.40;99.90;;;;;;5093837;28;20422;-70
2022/02/06 06:10:23;;;;;;;7.15;1.58;;;9.50;99.90;;;;;;5093982;28;20028;-70
2022/02/06 06:12:49;;;;;;;1.45;0.95;;;9.50;99.90;;;;;;5099655;28;20032;-70
2022/02/06 06:15:15;;;;;;;7.93;1.08;;;9.60;99.90;;;;;;5101383;28;20028;-70
2022/02/06 06:17:40;;;;;;;2.95;0.88;;;9.70;99.80;;;;;;5092228;28;20468;-70
2022/02/06 06:20:12;;;;;;;1.55;0.35;;;9.70;99.70;;;;;;5094438;28;20040;-70
2022/02/06 06:22:39;;;;;;;5.00;0.82;;;9.70;99.60;;;;;;5080092;28;20035;-70
2022/02/06 06:25:06;;;;;;;4.10;0.85;;;9.80;99.50;;;;;;5094003;28;20073;-69
2022/02/06 06:27:32;;;;;;;1.25;0.73;;;9.80;99.20;;;;;;5092040;28;20063;-71
2022/02/06 06:29:58;;;;;;;2.85;0.68;;;9.90;99.10;;;;;;5082103;28;20471;-69
2022/02/06 06:32:23;;;;;;;6.30;1.30;;;9.80;99.00;;;;;;5087885;28;20039;-69
2022/02/06 06:34:50;;;;;;;1.75;0.88;;;9.90;98.90;;;;;;5093737;28;20028;-69
2022/02/06 06:37:18;;;;;;;4.35;1.08;;;9.90;98.70;;;;;;5092733;28;20388;-69
2022/02/06 06:39:46;;;;;;;5.90;1.40;;;9.80;98.60;;;;;;5094056;28;20123;-69
2022/02/06 06:42:12;;;;;;;3.95;0.82;;;9.80;98.60;;;;;;5093259;28;20032;-69
2022/02/06 06:44:38;;;;;;;2.03;0.45;;;9.80;98.60;;;;;;5093076;28;20059;-71
2022/02/06 06:47:05;;;;;;;3.70;0.93;;;9.80;98.60;;;;;;5106846;28;20075;-71
2022/02/06 06:49:31;;;;;;;1.30;0.80;;;9.70;98.60;;;;;;5093553;28;20062;-71
2022/02/06 06:51:58;;;;;;;7.78;1.45;;;9.70;98.70;;;;;;5092380;28;20510;-71
2022/02/06 06:54:24;;;;;;;0.90;0.82;;;9.80;98.70;;;;;;5093859;28;20454;-71
2022/02/06 06:57:02;;;;;;;1.13;0.50;;;9.70;98.60;;;;;;5081125;28;20127;-70
2022/02/06 07:04:40;;;;;;;2.72;1.17;;;9.80;98.40;;;;;;5094694;28;20028;-69
2022/02/06 07:07:06;;;;;;;16.70;2.70;;;9.70;98.40;;;;;;5080202;28;20442;-69
2022/02/06 07:09:32;;;;;;;14.27;3.63;;;9.70;98.50;;;;;;5085795;28;20055;-69
2022/02/06 07:11:58;;;;;;;16.27;3.28;;;9.60;98.80;;;;;;5084991;28;20039;-69
2022/02/06 07:14:25;;;;;;;13.30;2.75;;;9.40;99.10;;;;;;5106215;28;20020;-68
2022/02/06 07:16:51;;;;;;;8.10;2.95;;;9.40;99.40;;;;;;5092170;28;20081;-69
2022/02/06 07:19:19;;;;;;;13.13;2.92;;;9.30;99.70;;;;;;5091982;28;20482;-70
2022/02/06 07:21:45;;;;;;;12.63;2.78;;;9.20;99.90;;;;;;5106120;28;20019;-70
2022/02/06 07:24:11;;;;;;;15.65;3.20;;;9.20;99.90;;;;;;5101531;28;20160;-70
2022/02/06 07:26:37;;;;;;;18.63;3.58;;;9.20;99.90;;;;;;5103832;28;20023;-70
2022/02/06 07:29:03;;;;;;;13.10;3.60;;;9.20;99.90;;;;;;5098460;28;20050;-70
2022/02/06 07:31:29;;;;;;;11.32;2.45;;;9.20;99.90;;;;;;5094000;28;20459;-71
2022/02/06 07:33:55;;;;;;;14.48;2.90;;;9.20;99.90;;;;;;5100676;28;20058;-70
2022/02/06 07:36:20;;;;;;;11.48;2.90;;;9.20;99.90;;;;;;5105698;28;20450;-73
2022/02/06 07:38:47;;;;;;;12.63;2.70;;;9.10;99.90;;;;;;5106504;28;20036;-73
2022/02/06 07:41:13;;;;;;;15.52;3.42;;;9.20;99.90;;;;;;5107234;28;20031;-73
2022/02/06 07:43:45;;;;;;;15.25;3.05;;;9.20;99.90;;;;;;5108320;28;20031;-73
2022/02/06 07:46:11;;;;;;;12.85;3.33;;;9.20;99.90;;;;;;5108010;28;20024;-73
2022/02/06 07:48:37;;;;;;;14.60;3.13;;;9.10;99.90;;;;;;5106882;28;20039;-73
2022/02/06 07:51:03;;;;;;;20.95;3.60;;;9.10;99.90;;;;;;5107939;28;20020;-73
2022/02/06 07:53:30;;;;;;;18.35;3.38;;;9.10;99.90;;;;;;5108415;28;20027;-73
2022/02/06 07:55:56;;;;;;;17.08;3.08;;;9.10;99.90;;;;;;5106931;28;20048;-72
2022/02/06 07:58:21;;;;;;;16.80;2.92;;;9.10;99.90;;;;;;5104041;28;20042;-72
2022/02/06 08:00:47;;;;;;;8.68;2.15;;;9.10;99.90;;;;;;5106751;28;20031;-72
2022/02/06 08:03:13;;;;;;;19.25;3.13;;;9.20;99.90;;;;;;5109234;28;20088;-73
2022/02/06 08:05:39;;;;;;;15.30;2.95;;;9.20;99.90;;;;;;5109799;28;20020;-67
2022/02/06 08:08:13;;;;;;;13.07;3.33;;;9.20;99.90;;;;;;5105088;28;20040;-67
2022/02/06 08:10:40;;;;;;;14.20;2.85;;;9.20;99.90;;;;;;5110059;28;20024;-67
2022/02/06 08:13:13;;;;;;;15.63;2.78;;;9.20;99.90;;;;;;5110247;28;20524;-67
2022/02/06 08:15:39;;;;;;;14.60;3.20;;;9.20;99.90;;;;;;5105883;28;20233;-67
2022/02/06 08:18:06;;;;;;;11.15;2.97;;;9.20;99.90;;;;;;5110818;27;20110;-67
2022/02/06 08:20:32;;;;;;;15.52;2.88;;;9.20;99.90;;;;;;5111585;27;20019;-68
2022/02/06 08:22:57;;;;;;;16.73;2.97;;;9.20;99.90;;;;;;5110841;27;20475;-69
2022/02/06 08:25:24;;;;;;;15.30;2.60;;;9.30;99.90;;;;;;5111619;28;20022;-69
2022/02/06 08:27:52;;;;;;;13.98;2.58;;;9.30;99.90;;;;;;5107979;27;20488;-68
2022/02/06 08:30:18;;;;;;;22.17;2.97;;;9.30;99.90;;;;;;5090503;28;20081;-66
2022/02/06 08:32:44;;;;;;;15.35;3.15;;;9.30;99.90;;;;;;5098414;28;20036;-65
2022/02/06 08:35:10;;;;;;;9.88;2.65;;;9.30;99.90;;;;;;5110264;28;20028;-67
2022/02/06 08:37:36;;;;;;;22.25;3.70;;;9.30;99.90;;;;;;5110530;28;20109;-66
2022/02/06 08:40:07;;;;;;;15.15;2.92;;;9.30;99.90;;;;;;5112040;28;20103;-68
2022/02/06 08:42:33;;;;;;;17.77;3.72;;;9.30;99.90;;;;;;5105637;28;20030;-67
2022/02/06 08:44:59;;;;;;;12.73;3.38;;;9.30;99.90;;;;;;5106877;28;20482;-68
2022/02/06 08:47:25;;;;;;;12.85;3.63;;;9.30;99.90;;;;;;5113391;28;20047;-70
2022/02/06 08:49:52;;;;;;;13.10;2.97;;;9.40;99.90;;;;;;5111595;28;20039;-67
2022/02/06 08:52:18;;;;;;;12.10;4.07;;;9.30;99.90;;;;;;5107449;28;20024;-68
2022/02/06 08:54:45;;;;;;;16.63;2.80;;;9.40;99.90;;;;;;5110171;27;20104;-68
2022/02/06 08:57:27;;;;;;;11.57;3.33;;;9.30;99.90;;;;;;5112729;28;20071;-68
2022/02/06 08:59:57;;;;;;;7.80;2.42;;;9.40;99.90;;;;;;5109625;27;20056;-66
2022/02/06 09:02:23;;;;;;;18.17;3.42;;;9.30;99.90;;;;;;5115227;28;20165;-67
2022/02/06 09:04:49;;;;;;;25.15;3.92;;;9.30;99.90;;;;;;5087797;28;20052;-66
2022/02/06 09:07:17;;;;;;;19.95;2.88;;;9.30;99.90;;;;;;5078532;28;20761;-67
2022/02/06 09:09:47;;;;;;;12.15;2.92;;;9.30;99.90;;;;;;5108213;28;20030;-67
2022/02/06 09:12:13;;;;;;;10.63;2.72;;;9.40;99.90;;;;;;5103344;27;20403;-67
2022/02/06 09:14:39;;;;;;;8.05;2.40;;;9.30;99.90;;;;;;5112046;28;20019;-67
2022/02/06 09:17:05;;;;;;;9.02;2.38;;;9.30;99.90;;;;;;5102123;27;20468;-67
2022/02/06 09:19:33;;;;;;;9.65;2.47;;;9.40;99.90;;;;;;5104549;28;20026;-68
2022/02/06 09:21:59;;;;;;;14.40;2.65;;;9.40;99.90;;;;;;5118817;27;20028;-67
2022/02/06 09:24:25;;;;;;;6.22;2.25;;;9.40;99.90;;;;;;5096531;27;20020;-67
2022/02/06 09:26:50;;;;;;;7.45;2.25;;;9.50;99.90;;;;;;5094620;28;20532;-67
2022/02/06 09:29:17;;;;;;;9.30;2.17;;;9.50;99.90;;;;;;5097567;28;20502;-67
2022/02/06 09:31:44;;;;;;;9.85;2.10;;;9.40;99.90;;;;;;5105285;28;20019;-68
2022/02/06 09:36:38;;;;;;;10.98;1.88;;;9.50;99.90;;;;;;5108150;28;20421;-67
2022/02/06 09:39:08;;;;;;;8.55;2.78;;;9.50;99.90;;;;;;5107187;28;20048;-67
2022/02/06 09:41:36;;;;;;;8.90;2.38;;;9.50;99.90;;;;;;5109951;28;20077;-67
2022/02/06 09:44:02;;;;;;;6.75;1.98;;;9.60;99.90;;;;;;5107352;28;20031;-67
2022/02/06 09:46:29;;;;;;;8.35;2.03;;;9.50;99.90;;;;;;5108885;28;20054;-67
2022/02/06 09:48:57;;;;;;;6.00;1.70;;;9.50;99.90;;;;;;5111924;28;20036;-67
2022/02/06 09:51:23;;;;;;;5.38;2.05;;;9.50;99.90;;;;;;5111657;27;20030;-67
2022/02/06 09:53:49;;;;;;;9.30;1.98;;;9.50;99.90;;;;;;5107973;28;20043;-67
2022/02/06 09:56:16;;;;;;;5.75;1.60;;;9.50;99.90;;;;;;5110705;28;20403;-67
2022/02/06 10:01:15;;;;;;;7.45;2.10;;;9.60;99.90;;;;;;5107507;28;20471;-67
2022/02/06 10:03:48;;;;;;;10.50;2.30;;;9.50;99.90;;;;;;5109204;28;20429;-67
2022/02/06 10:06:26;;;;;;;9.40;2.27;;;9.50;99.90;;;;;;5106322;28;20100;-67
2022/02/06 10:08:57;;;;;;;9.88;2.20;;;9.40;99.90;;;;;;5101670;28;20322;-67
2022/02/06 10:11:25;;;;;;;3.38;1.42;;;9.40;99.90;;;;;;5103996;28;20035;-68
2022/02/06 10:13:51;;;;;;;4.63;1.63;;;9.40;99.90;;;;;;5108433;28;20042;-67
2022/02/06 10:16:18;;;;;;;7.68;2.40;;;9.40;99.90;;;;;;5104339;28;20027;-67
2022/02/06 10:18:45;;;;;;;8.73;1.73;;;9.40;99.90;;;;;;5110939;28;20019;-67
2022/02/06 10:21:21;;;;;;;1.42;0.80;;;9.40;99.90;;;;;;5110719;28;20537;-68
2022/02/06 10:23:59;;;;;;;1.75;0.52;;;9.50;99.90;;;;;;5105463;28;20047;-67
2022/02/06 10:29:24;;;;;;;0.38;0.38;;;9.70;99.90;;;;;;5101716;28;20154;-67
2022/02/06 10:32:00;;;;;;;10.05;1.30;;;9.80;99.90;;;;;;5106173;28;20031;-68
2022/02/06 10:34:28;;;;;;;0.63;0.60;;;9.80;99.90;;;;;;5104704;28;20130;-67
2022/02/06 10:37:14;;;;;;;7.85;1.33;;;9.90;99.90;;;;;;5103012;28;20055;-68
2022/02/06 10:39:53;;;;;;;8.93;1.50;;;9.90;99.90;;;;;;5108445;28;20031;-68
2022/02/06 10:42:49;;;;;;;7.43;1.13;;;10.00;99.80;;;;;;5107715;28;20043;-67
2022/02/06 10:45:17;;;;;;;7.50;0.88;;;10.00;99.70;;;;;;5091876;28;20031;-69
2022/02/06 10:47:45;;;;;;;5.68;1.58;;;10.00;99.60;;;;;;5104731;28;20031;-69
2022/02/06 10:50:14;;;;;;;9.73;2.00;;;10.10;99.50;;;;;;5106858;28;20707;-69
2022/02/06 10:52:43;;;;;;;8.48;1.23;;;10.00;99.20;;;;;;5109541;28;20043;-69
2022/02/06 10:55:09;;;;;;;5.60;1.52;;;10.00;99.10;;;;;;5107666;28;20028;-67
2022/02/06 10:57:36;;;;;;;9.02;1.50;;;10.00;99.00;;;;;;5104734;28;20127;-66
2022/02/06 11:00:05;;;;;;;3.35;0.95;;;10.00;98.90;;;;;;5108108;28;20019;-68
2022/02/06 11:02:35;;;;;;;7.38;0.80;;;10.00;98.80;;;;;;5108681;28;20023;-68
2022/02/06 11:05:18;;;;;;;6.25;1.40;;;10.00;98.80;;;;;;5103646;28;20028;-68
2022/02/06 11:07:51;;;;;;;6.28;1.52;;;9.90;98.70;;;;;;5107520;28;20464;-68
2022/02/06 11:10:17;;;;;;;8.45;1.60;;;9.90;98.60;;;;;;5108999;28;20115;-68
2022/02/06 11:12:49;;;;;;;5.88;1.02;;;9.90;98.60;;;;;;5107659;28;20475;-68
2022/02/06 11:15:39;;;;;;;1.77;0.57;;;9.90;98.60;;;;;;5106511;28;20035;-68
2022/02/06 11:18:14;;;;;;;0.90;0.63;;;9.90;98.50;;;;;;5103488;28;20411;-68
2022/02/06 11:21:04;;;;;;;1.10;0.70;;;9.80;98.40;;;;;;5108178;28;20068;-69
2022/02/06 11:23:39;;;;;;;2.38;0.70;;;9.80;98.30;;;;;;5105754;28;20031;-68
2022/02/06 11:26:05;;;;;;;2.80;1.02;;;9.80;98.20;;;;;;5108662;28;20679;-68
2022/02/06 11:28:31;;;;;;;1.60;0.60;;;9.70;98.10;;;;;;5108470;28;20034;-68
2022/02/06 11:30:57;;;;;;;1.85;0.75;;;9.70;98.10;;;;;;5106165;28;20028;-68
2022/02/06 11:33:26;;;;;;;0.73;0.57;;;9.70;98.10;;;;;;5105398;28;20027;-68
2022/02/06 11:36:00;;;;;;;3.42;0.95;;;9.70;98.10;;;;;;5104667;28;20027;-68
2022/02/06 11:44:55;;;;;;;3.90;1.10;;;9.60;97.90;;;;;;5107905;28;20088;-69
2022/02/06 11:47:28;;;;;;;2.28;0.82;;;9.40;97.80;;;;;;5109557;28;20124;-68
2022/02/06 11:49:57;;;;;;;1.83;0.70;;;9.30;97.90;;;;;;5109134;28;20054;-68
2022/02/06 11:52:48;;;;;;;1.23;0.70;;;9.30;98.00;;;;;;5106823;28;20050;-68
2022/02/06 11:55:34;;;;;;;0.57;0.50;;;9.30;98.00;;;;;;5108722;28;20029;-68
2022/02/06 11:58:19;;;;;;;0.93;0.65;;;9.20;98.00;;;;;;5108055;28;20043;-68
2022/02/06 12:00:44;;;;;;;1.42;1.02;;;9.20;98.10;;;;;;5107482;28;20031;-69
2022/02/06 12:03:12;;;;;;;2.55;0.77;;;9.10;98.00;;;;;;5110214;28;20035;-68
2022/02/06 12:05:57;;;;;;;4.43;1.27;;;9.10;98.10;;;;;;5105294;28;20521;-68
2022/02/06 12:08:23;;;;;;;4.60;1.08;;;9.00;98.10;;;;;;5105596;28;20487;-67
2022/02/06 12:10:58;;;;;;;1.67;0.90;;;9.00;98.10;;;;;;5108959;28;20110;-68
2022/02/06 12:13:31;;;;;;;3.63;1.13;;;8.90;98.10;;;;;;5111381;28;20072;-68
2022/02/06 12:16:00;;;;;;;1.40;0.70;;;8.90;98.20;;;;;;5102775;28;20032;-68
2022/02/06 12:18:29;;;;;;;3.08;1.23;;;8.90;98.20;;;;;;5105325;28;20035;-67
2022/02/06 12:20:57;;;;;;;2.47;0.60;;;8.80;98.20;;;;;;5110552;28;20032;-67
2022/02/06 12:23:49;;;;;;;2.03;0.90;;;8.80;98.20;;;;;;5109838;28;20038;-68
2022/02/06 12:26:38;;;;;;;6.07;1.15;;;8.80;98.30;;;;;;5109408;28;20049;-68
2022/02/06 12:29:15;;;;;;;2.80;1.10;;;8.70;98.30;;;;;;5105069;28;20050;-68
2022/02/06 12:31:52;;;;;;;2.88;0.93;;;8.70;98.30;;;;;;5110222;28;20024;-68
2022/02/06 12:37:30;;;;;;;0.88;0.70;;;8.70;98.40;;;;;;5102736;28;20027;-68
2022/02/06 12:40:06;;;;;;;3.85;1.10;;;8.60;98.50;;;;;;5109939;28;20024;-68
2022/02/06 12:42:34;;;;;;;2.60;0.88;;;8.50;98.50;;;;;;5105829;28;20384;-68
2022/02/06 12:45:02;;;;;;;3.92;1.52;;;8.50;98.70;;;;;;5109730;28;20030;-68
2022/02/06 12:47:29;;;;;;;8.45;1.27;;;8.50;98.80;;;;;;5105516;28;20125;-68
2022/02/06 12:49:55;;;;;;;6.53;1.33;;;8.40;98.90;;;;;;5109117;28;20028;-68
2022/02/06 12:52:21;;;;;;;10.45;1.52;;;8.40;99.00;;;;;;5110218;28;20356;-69
2022/02/06 12:54:47;;;;;;;4.72;1.35;;;8.40;99.00;;;;;;5110095;28;20035;-68
2022/02/06 12:57:14;;;;;;;5.93;1.33;;;8.40;99.10;;;;;;5097618;28;20053;-68
2022/02/06 12:59:40;;;;;;;8.05;1.33;;;8.40;99.10;;;;;;5093048;28;20054;-68
2022/02/06 13:02:09;;;;;;;3.88;0.93;;;8.50;99.10;;;;;;5095265;28;20569;-67
2022/02/06 13:04:41;;;;;;;5.75;1.20;;;8.50;99.10;;;;;;5110350;28;20122;-70
2022/02/06 13:07:08;;;;;;;8.60;2.00;;;8.50;99.10;;;;;;5109924;27;20107;-68
2022/02/06 13:09:45;;;;;;;4.95;1.70;;;8.60;99.10;;;;;;5110523;28;20039;-68
2022/02/06 13:12:40;;;;;;;9.43;2.47;;;8.60;99.10;;;;;;5106030;28;20053;-68
2022/02/06 13:25:50;;;;;;;9.05;1.90;;;8.70;99.10;;;;;;5110827;28;20028;-67
2022/02/06 13:36:48;;;;;;;9.48;2.17;;;8.80;99.10;;;;;;5087495;28;20099;-67
2022/02/06 13:39:18;;;;;;;3.67;1.60;;;8.80;99.10;;;;;;5110576;28;20039;-66
2022/02/06 13:41:44;;;;;;;11.80;2.00;;;8.80;99.20;;;;;;5114615;28;20023;-68
2022/02/06 13:44:24;;;;;;;9.95;1.92;;;8.80;99.20;;;;;;5109803;28;20394;-67
2022/02/06 13:46:52;;;;;;;5.57;1.67;;;8.90;99.20;;;;;;5107114;28;20108;-67
2022/02/06 13:49:27;;;;;;;14.40;2.72;;;8.90;99.10;;;;;;5114603;28;20036;-66
2022/02/06 13:51:52;;;;;;;9.35;1.50;;;8.90;99.10;;;;;;5105342;28;20028;-67
2022/02/06 13:54:19;;;;;;;15.32;2.50;;;9.00;99.10;;;;;;5110578;28;20020;-68
2022/02/06 13:56:54;;;;;;;19.00;2.88;;;8.90;99.10;;;;;;5112832;28;20047;-67
2022/02/06 13:59:22;;;;;;;8.75;1.58;;;9.00;99.20;;;;;;5103673;28;20032;-67
2022/02/06 14:01:55;;;;;;;11.43;2.03;;;9.00;99.20;;;;;;5107288;28;20046;-67
2022/02/06 14:04:26;;;;;;;7.22;1.90;;;9.00;99.30;;;;;;5097722;27;20059;-67
2022/02/06 14:07:18;;;;;;;8.35;1.75;;;9.00;99.20;;;;;;5096304;28;20028;-67
2022/02/06 14:10:03;;;;;;;6.18;1.63;;;9.10;99.20;;;;;;5094379;28;20028;-67
2022/02/06 14:12:29;;;;;;;4.05;1.70;;;9.10;99.10;;;;;;5110862;28;20467;-67
2022/02/06 14:14:59;;;;;;;7.40;1.52;;;9.10;99.10;;;;;;5110611;28;20036;-67
2022/02/06 14:17:38;;;;;;;8.73;1.77;;;9.20;99.10;;;;;;5075707;28;20444;-67
2022/02/06 14:20:12;;;;;;;7.65;1.42;;;9.20;98.80;;;;;;5076013;28;20077;-67
2022/02/06 14:22:43;;;;;;;8.82;1.88;;;9.20;99.00;;;;;;5104849;28;20139;-67
2022/02/06 14:25:12;;;;;;;13.80;3.17;;;9.20;99.00;;;;;;5093689;28;20024;-67
2022/02/06 14:27:40;;;;;;;6.97;1.90;;;9.20;99.00;;;;;;5102178;28;20040;-67
2022/02/06 14:30:11;;;;;;;11.05;2.08;;;9.20;98.90;;;;;;5107758;28;20023;-67
2022/02/06 14:32:54;;;;;;;10.13;2.50;;;9.30;98.90;;;;;;5108635;28;20039;-67
2022/02/06 14:35:19;;;;;;;8.70;2.00;;;9.20;98.90;;;;;;5111621;28;20028;-69
2022/02/06 14:37:50;;;;;;;4.75;1.48;;;9.20;98.80;;;;;;5101523;28;20050;-67
2022/02/06 14:40:42;;;;;;;7.90;1.80;;;9.20;98.80;;;;;;5107517;28;20019;-67
2022/02/06 14:43:14;;;;;;;5.07;2.08;;;9.20;98.80;;;;;;5093840;28;20109;-67
2022/02/06 14:45:48;;;;;;;9.75;2.13;;;9.20;98.80;;;;;;5093220;28;20395;-67
2022/02/06 14:48:14;;;;;;;6.22;2.08;;;9.20;98.90;;;;;;5101915;28;20123;-67
2022/02/06 14:50:47;;;;;;;5.55;1.50;;;9.20;98.90;;;;;;5097341;28;20036;-67
2022/02/06 14:53:16;;;;;;;11.18;1.75;;;9.20;98.90;;;;;;5098403;28;20029;-67
2022/02/06 14:55:43;;;;;;;7.07;1.48;;;9.20;98.90;;;;;;5095984;28;20048;-69
2022/02/06 14:58:10;;;;;;;12.55;1.95;;;9.20;99.00;;;;;;5092458;28;20043;-68
2022/02/06 15:00:40;;;;;;;11.90;1.92;;;9.10;98.80;;;;;;5100785;28;20053;-67
2022/02/06 15:03:07;;;;;;;8.55;1.75;;;9.20;96.80;;;;;;5097322;28;20089;-68
2022/02/06 15:05:34;;;;;;;4.03;1.08;;;9.20;95.40;;;;;;5086253;28;20025;-67
2022/02/06 15:08:00;;;;;;;5.25;1.20;;;9.20;96.30;;;;;;5088859;28;20071;-69
2022/02/06 15:10:27;;;;;;;6.18;1.08;;;9.20;95.60;;;;;;5101176;28;20830;-67
2022/02/06 15:12:53;;;;;;;1.55;0.90;;;9.10;96.60;;;;;;5108770;28;20032;-67
2022/02/06 15:15:19;;;;;;;1.15;0.60;;;9.10;96.90;;;;;;5096833;28;20028;-67
2022/02/06 15:17:45;;;;;;;1.70;0.65;;;9.00;97.00;;;;;;5106884;28;20031;-67
2022/02/06 15:20:11;;;;;;;2.30;1.13;;;9.00;97.00;;;;;;5106570;28;20030;-67
2022/02/06 15:22:39;;;;;;;2.38;1.00;;;9.00;97.00;;;;;;5107089;28;20058;-67
2022/02/06 15:25:06;;;;;;;1.85;0.90;;;9.00;97.00;;;;;;5103162;28;20051;-67
2022/02/06 15:27:31;;;;;;;3.25;0.90;;;8.90;96.90;;;;;;5107627;28;20130;-67
2022/02/06 15:29:57;;;;;;;1.58;0.57;;;8.90;96.90;;;;;;5107950;28;20110;-67
2022/02/06 15:32:25;;;;;;;0.57;0.57;;;8.90;96.80;;;;;;5106272;28;20078;-67
2022/02/06 15:34:51;;;;;;;2.15;0.77;;;8.80;96.80;;;;;;5107275;28;20487;-68
2022/02/06 15:37:18;;;;;;;0.50;0.50;;;8.80;96.70;;;;;;5106542;28;20038;-67
2022/02/06 15:39:46;;;;;;;1.20;0.47;;;8.70;96.60;;;;;;5104702;28;20413;-67
2022/02/06 15:42:15;;;;;;;3.55;0.70;;;8.70;96.60;;;;;;5106015;28;20043;-67
2022/02/06 15:44:44;;;;;;;0.85;0.75;;;8.70;96.50;;;;;;5106068;28;20081;-69
2022/02/06 15:47:10;;;;;;;1.52;0.80;;;8.60;96.50;;;;;;5105793;27;20035;-70
2022/02/06 15:49:37;;;;;;;2.03;0.88;;;8.50;96.30;;;;;;5106001;28;20074;-68
2022/02/06 15:52:04;;;;;;;8.20;1.20;;;8.50;96.20;;;;;;5104621;28;20449;-67
2022/02/06 15:54:30;;;;;;;4.20;0.98;;;8.40;96.20;;;;;;5107661;28;20078;-67
2022/02/06 15:56:56;;;;;;;3.10;1.35;;;8.30;96.10;;;;;;5105310;28;20055;-67